sensor_id;sensor_type;location;lat;lon;timestamp;P1;durP1;ratioP1;P2;durP2;ratioP2
58015;SDS011;43809;52.110;20.964;2023-03-01T00:00:03;49.88;;;22.67;;
58015;SDS011;43809;52.110;20.964;2023-03-01T00:02:03;53.50;;;22.98;;
58015;SDS011;43809;52.110;20.964;2023-03-01T00:04:05;49.28;;;21.90;;
58015;SDS011;43809;52.110;20.964;2023-03-01T00:06:06;48.47;;;21.50;;
58015;SDS011;43809;52.110;20.964;2023-03-01T00:08:06;45.25;;;20.92;;
58015;SDS011;43809;52.110;20.964;2023-03-01T00:10:06;41.78;;;20.20;;
58015;SDS011;43809;52.110;20.964;2023-03-01T00:12:07;40.25;;;19.48;;
58015;SDS011;43809;52.110;20.964;2023-03-01T00:14:07;50.75;;;21.63;;
58015;SDS011;43809;52.110;20.964;2023-03-01T00:16:08;44.75;;;20.15;;
58015;SDS011;43809;52.110;20.964;2023-03-01T00:18:08;44.53;;;21.27;;
58015;SDS011;43809;52.110;20.964;2023-03-01T00:20:09;45.90;;;20.48;;
58015;SDS011;43809;52.110;20.964;2023-03-01T00:22:10;49.50;;;22.20;;
58015;SDS011;43809;52.110;20.964;2023-03-01T00:24:10;56.17;;;24.77;;
58015;SDS011;43809;52.110;20.964;2023-03-01T00:26:12;51.00;;;24.52;;
58015;SDS011;43809;52.110;20.964;2023-03-01T00:28:12;55.70;;;25.95;;
58015;SDS011;43809;52.110;20.964;2023-03-01T00:30:12;58.15;;;25.80;;
58015;SDS011;43809;52.110;20.964;2023-03-01T00:32:13;53.00;;;24.27;;
58015;SDS011;43809;52.110;20.964;2023-03-01T00:34:13;53.20;;;25.30;;
58015;SDS011;43809;52.110;20.964;2023-03-01T00:36:14;43.25;;;22.23;;
58015;SDS011;43809;52.110;20.964;2023-03-01T00:38:14;44.42;;;21.98;;
58015;SDS011;43809;52.110;20.964;2023-03-01T00:40:14;42.33;;;21.88;;
58015;SDS011;43809;52.110;20.964;2023-03-01T00:42:17;44.70;;;22.63;;
58015;SDS011;43809;52.110;20.964;2023-03-01T00:44:17;50.85;;;25.67;;
58015;SDS011;43809;52.110;20.964;2023-03-01T00:46:18;49.15;;;24.77;;
58015;SDS011;43809;52.110;20.964;2023-03-01T00:48:19;58.05;;;28.40;;
58015;SDS011;43809;52.110;20.964;2023-03-01T00:50:19;53.97;;;26.50;;
58015;SDS011;43809;52.110;20.964;2023-03-01T00:52:19;57.47;;;27.75;;
58015;SDS011;43809;52.110;20.964;2023-03-01T00:54:20;58.58;;;27.70;;
58015;SDS011;43809;52.110;20.964;2023-03-01T00:56:20;54.47;;;26.15;;
58015;SDS011;43809;52.110;20.964;2023-03-01T00:58:20;49.35;;;23.88;;
58015;SDS011;43809;52.110;20.964;2023-03-01T01:00:20;48.00;;;24.55;;
58015;SDS011;43809;52.110;20.964;2023-03-01T01:02:21;51.80;;;25.60;;
58015;SDS011;43809;52.110;20.964;2023-03-01T01:04:21;45.47;;;22.45;;
58015;SDS011;43809;52.110;20.964;2023-03-01T01:06:44;49.80;;;26.02;;
58015;SDS011;43809;52.110;20.964;2023-03-01T01:08:42;47.38;;;23.50;;
58015;SDS011;43809;52.110;20.964;2023-03-01T01:10:43;45.05;;;23.55;;
58015;SDS011;43809;52.110;20.964;2023-03-01T01:12:44;50.20;;;23.98;;
58015;SDS011;43809;52.110;20.964;2023-03-01T01:14:45;49.60;;;24.02;;
58015;SDS011;43809;52.110;20.964;2023-03-01T01:16:46;47.67;;;23.48;;
58015;SDS011;43809;52.110;20.964;2023-03-01T01:18:46;44.78;;;21.52;;
58015;SDS011;43809;52.110;20.964;2023-03-01T01:20:46;48.42;;;23.35;;
58015;SDS011;43809;52.110;20.964;2023-03-01T01:22:46;42.88;;;21.67;;
58015;SDS011;43809;52.110;20.964;2023-03-01T01:24:47;45.60;;;22.17;;
58015;SDS011;43809;52.110;20.964;2023-03-01T01:26:49;43.38;;;22.08;;
58015;SDS011;43809;52.110;20.964;2023-03-01T01:28:49;46.78;;;22.08;;
58015;SDS011;43809;52.110;20.964;2023-03-01T01:30:50;40.40;;;20.73;;
58015;SDS011;43809;52.110;20.964;2023-03-01T01:32:50;43.72;;;22.30;;
58015;SDS011;43809;52.110;20.964;2023-03-01T01:34:50;44.63;;;23.50;;
58015;SDS011;43809;52.110;20.964;2023-03-01T01:36:52;46.10;;;24.20;;
58015;SDS011;43809;52.110;20.964;2023-03-01T01:38:53;43.40;;;21.33;;
58015;SDS011;43809;52.110;20.964;2023-03-01T01:40:54;44.78;;;22.08;;
58015;SDS011;43809;52.110;20.964;2023-03-01T01:42:54;47.85;;;23.98;;
58015;SDS011;43809;52.110;20.964;2023-03-01T01:47:16;49.28;;;24.38;;
58015;SDS011;43809;52.110;20.964;2023-03-01T01:49:31;48.88;;;23.20;;
58015;SDS011;43809;52.110;20.964;2023-03-01T01:51:35;45.05;;;21.23;;
58015;SDS011;43809;52.110;20.964;2023-03-01T01:53:38;41.50;;;19.67;;
58015;SDS011;43809;52.110;20.964;2023-03-01T01:55:41;42.42;;;20.15;;
58015;SDS011;43809;52.110;20.964;2023-03-01T01:57:43;40.55;;;21.33;;
58015;SDS011;43809;52.110;20.964;2023-03-01T01:59:45;44.50;;;20.80;;
58015;SDS011;43809;52.110;20.964;2023-03-01T02:01:47;38.83;;;20.67;;
58015;SDS011;43809;52.110;20.964;2023-03-01T02:03:47;44.35;;;22.00;;
58015;SDS011;43809;52.110;20.964;2023-03-01T02:07:54;40.75;;;21.75;;
58015;SDS011;43809;52.110;20.964;2023-03-01T02:09:55;48.63;;;23.98;;
58015;SDS011;43809;52.110;20.964;2023-03-01T02:11:56;45.67;;;23.48;;
58015;SDS011;43809;52.110;20.964;2023-03-01T02:13:58;44.63;;;21.05;;
58015;SDS011;43809;52.110;20.964;2023-03-01T02:15:58;45.15;;;21.65;;
58015;SDS011;43809;52.110;20.964;2023-03-01T02:17:58;49.22;;;23.00;;
58015;SDS011;43809;52.110;20.964;2023-03-01T02:20:12;49.47;;;23.52;;
58015;SDS011;43809;52.110;20.964;2023-03-01T02:22:24;52.42;;;25.52;;
58015;SDS011;43809;52.110;20.964;2023-03-01T02:24:43;57.08;;;27.60;;
58015;SDS011;43809;52.110;20.964;2023-03-01T02:26:47;52.45;;;24.70;;
58015;SDS011;43809;52.110;20.964;2023-03-01T02:28:48;47.92;;;22.70;;
58015;SDS011;43809;52.110;20.964;2023-03-01T02:30:48;50.50;;;23.80;;
58015;SDS011;43809;52.110;20.964;2023-03-01T02:33:08;51.15;;;24.73;;
58015;SDS011;43809;52.110;20.964;2023-03-01T02:35:09;49.25;;;23.38;;
58015;SDS011;43809;52.110;20.964;2023-03-01T02:37:11;52.60;;;25.08;;
58015;SDS011;43809;52.110;20.964;2023-03-01T02:39:14;46.45;;;21.48;;
58015;SDS011;43809;52.110;20.964;2023-03-01T02:41:18;40.50;;;19.35;;
58015;SDS011;43809;52.110;20.964;2023-03-01T02:43:19;45.17;;;21.92;;
58015;SDS011;43809;52.110;20.964;2023-03-01T02:45:21;44.47;;;21.40;;
58015;SDS011;43809;52.110;20.964;2023-03-01T02:47:21;46.65;;;24.05;;
58015;SDS011;43809;52.110;20.964;2023-03-01T02:53:48;47.50;;;22.42;;
58015;SDS011;43809;52.110;20.964;2023-03-01T02:55:51;43.85;;;22.73;;
58015;SDS011;43809;52.110;20.964;2023-03-01T02:57:51;45.90;;;23.17;;
58015;SDS011;43809;52.110;20.964;2023-03-01T02:59:51;54.88;;;26.05;;
58015;SDS011;43809;52.110;20.964;2023-03-01T03:01:52;47.47;;;23.63;;
58015;SDS011;43809;52.110;20.964;2023-03-01T03:03:53;46.20;;;22.75;;
58015;SDS011;43809;52.110;20.964;2023-03-01T03:05:53;48.03;;;22.35;;
58015;SDS011;43809;52.110;20.964;2023-03-01T03:07:54;53.05;;;26.58;;
58015;SDS011;43809;52.110;20.964;2023-03-01T03:09:54;50.88;;;25.00;;
58015;SDS011;43809;52.110;20.964;2023-03-01T03:11:54;51.78;;;24.50;;
58015;SDS011;43809;52.110;20.964;2023-03-01T03:13:54;52.03;;;25.13;;
58015;SDS011;43809;52.110;20.964;2023-03-01T03:15:56;52.15;;;25.83;;
58015;SDS011;43809;52.110;20.964;2023-03-01T03:17:56;48.30;;;24.10;;
58015;SDS011;43809;52.110;20.964;2023-03-01T03:19:57;47.25;;;23.20;;
58015;SDS011;43809;52.110;20.964;2023-03-01T03:21:57;52.40;;;25.13;;
58015;SDS011;43809;52.110;20.964;2023-03-01T03:23:59;47.97;;;23.42;;
58015;SDS011;43809;52.110;20.964;2023-03-01T03:25:59;53.40;;;26.17;;
58015;SDS011;43809;52.110;20.964;2023-03-01T03:27:59;52.03;;;25.08;;
58015;SDS011;43809;52.110;20.964;2023-03-01T03:29:59;54.33;;;26.58;;
58015;SDS011;43809;52.110;20.964;2023-03-01T03:32:00;56.85;;;27.05;;
58015;SDS011;43809;52.110;20.964;2023-03-01T03:34:00;56.17;;;27.00;;
58015;SDS011;43809;52.110;20.964;2023-03-01T03:36:00;57.38;;;28.63;;
58015;SDS011;43809;52.110;20.964;2023-03-01T03:38:01;54.42;;;26.75;;
58015;SDS011;43809;52.110;20.964;2023-03-01T03:40:04;53.15;;;25.15;;
58015;SDS011;43809;52.110;20.964;2023-03-01T03:42:15;61.00;;;28.50;;
58015;SDS011;43809;52.110;20.964;2023-03-01T03:44:15;68.20;;;31.10;;
58015;SDS011;43809;52.110;20.964;2023-03-01T03:46:15;58.30;;;27.50;;
58015;SDS011;43809;52.110;20.964;2023-03-01T03:48:17;55.77;;;27.03;;
58015;SDS011;43809;52.110;20.964;2023-03-01T03:50:17;60.58;;;26.77;;
58015;SDS011;43809;52.110;20.964;2023-03-01T03:52:18;54.80;;;26.90;;
58015;SDS011;43809;52.110;20.964;2023-03-01T03:54:18;51.22;;;24.95;;
58015;SDS011;43809;52.110;20.964;2023-03-01T03:56:27;51.55;;;24.80;;
58015;SDS011;43809;52.110;20.964;2023-03-01T03:58:27;48.17;;;23.88;;
58015;SDS011;43809;52.110;20.964;2023-03-01T04:00:28;58.45;;;28.58;;
58015;SDS011;43809;52.110;20.964;2023-03-01T04:02:28;55.92;;;27.60;;
58015;SDS011;43809;52.110;20.964;2023-03-01T04:04:28;52.28;;;26.35;;
58015;SDS011;43809;52.110;20.964;2023-03-01T04:06:28;53.22;;;24.88;;
58015;SDS011;43809;52.110;20.964;2023-03-01T04:08:28;55.38;;;26.33;;
58015;SDS011;43809;52.110;20.964;2023-03-01T04:10:29;60.83;;;27.20;;
58015;SDS011;43809;52.110;20.964;2023-03-01T04:12:30;55.47;;;27.70;;
58015;SDS011;43809;52.110;20.964;2023-03-01T04:14:31;54.00;;;25.00;;
58015;SDS011;43809;52.110;20.964;2023-03-01T04:16:32;54.97;;;26.60;;
58015;SDS011;43809;52.110;20.964;2023-03-01T04:18:32;50.83;;;25.55;;
58015;SDS011;43809;52.110;20.964;2023-03-01T04:20:34;54.53;;;25.80;;
58015;SDS011;43809;52.110;20.964;2023-03-01T04:22:34;49.88;;;25.00;;
58015;SDS011;43809;52.110;20.964;2023-03-01T04:24:35;59.17;;;27.90;;
58015;SDS011;43809;52.110;20.964;2023-03-01T04:26:35;58.72;;;29.02;;
58015;SDS011;43809;52.110;20.964;2023-03-01T04:28:40;54.65;;;25.15;;
58015;SDS011;43809;52.110;20.964;2023-03-01T04:30:42;57.20;;;27.40;;
58015;SDS011;43809;52.110;20.964;2023-03-01T04:32:43;52.50;;;25.90;;
58015;SDS011;43809;52.110;20.964;2023-03-01T04:34:43;43.95;;;22.75;;
58015;SDS011;43809;52.110;20.964;2023-03-01T04:36:43;47.70;;;23.70;;
58015;SDS011;43809;52.110;20.964;2023-03-01T04:38:43;49.97;;;22.13;;
58015;SDS011;43809;52.110;20.964;2023-03-01T04:40:47;44.60;;;23.23;;
58015;SDS011;43809;52.110;20.964;2023-03-01T04:42:47;52.72;;;25.98;;
58015;SDS011;43809;52.110;20.964;2023-03-01T04:44:47;50.75;;;25.42;;
58015;SDS011;43809;52.110;20.964;2023-03-01T04:46:48;50.67;;;23.38;;
58015;SDS011;43809;52.110;20.964;2023-03-01T04:48:49;50.35;;;24.15;;
58015;SDS011;43809;52.110;20.964;2023-03-01T04:50:49;51.55;;;24.95;;
58015;SDS011;43809;52.110;20.964;2023-03-01T04:52:50;51.33;;;25.08;;
58015;SDS011;43809;52.110;20.964;2023-03-01T04:54:50;53.38;;;24.70;;
58015;SDS011;43809;52.110;20.964;2023-03-01T04:56:51;49.38;;;25.48;;
58015;SDS011;43809;52.110;20.964;2023-03-01T04:58:53;55.92;;;27.65;;
58015;SDS011;43809;52.110;20.964;2023-03-01T05:04:53;60.30;;;26.97;;
58015;SDS011;43809;52.110;20.964;2023-03-01T05:06:58;56.85;;;27.35;;
58015;SDS011;43809;52.110;20.964;2023-03-01T05:08:58;58.10;;;26.33;;
58015;SDS011;43809;52.110;20.964;2023-03-01T05:10:58;52.05;;;26.48;;
58015;SDS011;43809;52.110;20.964;2023-03-01T05:12:59;55.42;;;26.05;;
58015;SDS011;43809;52.110;20.964;2023-03-01T05:14:59;47.30;;;23.65;;
58015;SDS011;43809;52.110;20.964;2023-03-01T05:16:59;51.08;;;24.48;;
58015;SDS011;43809;52.110;20.964;2023-03-01T05:19:03;49.20;;;25.17;;
58015;SDS011;43809;52.110;20.964;2023-03-01T05:21:15;57.10;;;26.63;;
58015;SDS011;43809;52.110;20.964;2023-03-01T05:23:20;49.22;;;25.33;;
58015;SDS011;43809;52.110;20.964;2023-03-01T05:25:21;53.45;;;24.88;;
58015;SDS011;43809;52.110;20.964;2023-03-01T05:27:21;51.20;;;23.50;;
58015;SDS011;43809;52.110;20.964;2023-03-01T05:29:23;46.80;;;23.75;;
58015;SDS011;43809;52.110;20.964;2023-03-01T05:31:26;48.58;;;23.00;;
58015;SDS011;43809;52.110;20.964;2023-03-01T05:33:27;51.05;;;26.13;;
58015;SDS011;43809;52.110;20.964;2023-03-01T05:35:32;48.47;;;24.33;;
58015;SDS011;43809;52.110;20.964;2023-03-01T05:39:33;47.50;;;23.48;;
58015;SDS011;43809;52.110;20.964;2023-03-01T05:41:33;47.35;;;23.33;;
58015;SDS011;43809;52.110;20.964;2023-03-01T05:43:34;48.92;;;24.13;;
58015;SDS011;43809;52.110;20.964;2023-03-01T05:45:35;48.92;;;23.33;;
58015;SDS011;43809;52.110;20.964;2023-03-01T05:47:39;47.72;;;22.80;;
58015;SDS011;43809;52.110;20.964;2023-03-01T05:49:43;48.42;;;23.08;;
58015;SDS011;43809;52.110;20.964;2023-03-01T05:53:47;51.47;;;25.10;;
58015;SDS011;43809;52.110;20.964;2023-03-01T05:55:47;49.40;;;24.25;;
58015;SDS011;43809;52.110;20.964;2023-03-01T05:57:48;50.88;;;24.58;;
58015;SDS011;43809;52.110;20.964;2023-03-01T05:59:49;48.65;;;25.88;;
58015;SDS011;43809;52.110;20.964;2023-03-01T06:01:49;51.55;;;24.92;;
58015;SDS011;43809;52.110;20.964;2023-03-01T06:03:50;41.80;;;23.48;;
58015;SDS011;43809;52.110;20.964;2023-03-01T06:05:50;44.08;;;22.67;;
58015;SDS011;43809;52.110;20.964;2023-03-01T06:07:55;43.45;;;21.10;;
58015;SDS011;43809;52.110;20.964;2023-03-01T06:09:55;36.65;;;19.75;;
58015;SDS011;43809;52.110;20.964;2023-03-01T06:11:55;38.63;;;19.45;;
58015;SDS011;43809;52.110;20.964;2023-03-01T06:13:55;37.78;;;20.13;;
58015;SDS011;43809;52.110;20.964;2023-03-01T06:15:55;44.75;;;22.80;;
58015;SDS011;43809;52.110;20.964;2023-03-01T06:17:56;46.17;;;23.63;;
58015;SDS011;43809;52.110;20.964;2023-03-01T06:19:59;48.25;;;24.00;;
58015;SDS011;43809;52.110;20.964;2023-03-01T06:22:01;45.75;;;23.88;;
58015;SDS011;43809;52.110;20.964;2023-03-01T06:24:01;43.17;;;22.48;;
58015;SDS011;43809;52.110;20.964;2023-03-01T06:26:05;47.42;;;25.27;;
58015;SDS011;43809;52.110;20.964;2023-03-01T06:28:05;62.65;;;28.50;;
58015;SDS011;43809;52.110;20.964;2023-03-01T06:30:05;64.30;;;29.92;;
58015;SDS011;43809;52.110;20.964;2023-03-01T06:32:08;56.45;;;27.80;;
58015;SDS011;43809;52.110;20.964;2023-03-01T06:34:08;53.70;;;26.80;;
58015;SDS011;43809;52.110;20.964;2023-03-01T06:36:08;54.63;;;27.17;;
58015;SDS011;43809;52.110;20.964;2023-03-01T06:38:09;56.67;;;29.37;;
58015;SDS011;43809;52.110;20.964;2023-03-01T06:40:10;52.92;;;28.17;;
58015;SDS011;43809;52.110;20.964;2023-03-01T06:42:13;52.95;;;26.75;;
58015;SDS011;43809;52.110;20.964;2023-03-01T06:44:14;54.25;;;26.98;;
58015;SDS011;43809;52.110;20.964;2023-03-01T06:46:14;54.67;;;28.92;;
58015;SDS011;43809;52.110;20.964;2023-03-01T06:48:14;54.20;;;28.35;;
58015;SDS011;43809;52.110;20.964;2023-03-01T06:50:15;48.80;;;27.05;;
58015;SDS011;43809;52.110;20.964;2023-03-01T06:52:15;47.53;;;26.52;;
58015;SDS011;43809;52.110;20.964;2023-03-01T06:54:16;50.75;;;27.98;;
58015;SDS011;43809;52.110;20.964;2023-03-01T06:56:17;48.67;;;26.50;;
58015;SDS011;43809;52.110;20.964;2023-03-01T06:58:17;48.42;;;26.38;;
58015;SDS011;43809;52.110;20.964;2023-03-01T07:00:18;49.60;;;27.85;;
58015;SDS011;43809;52.110;20.964;2023-03-01T07:02:19;44.45;;;24.75;;
58015;SDS011;43809;52.110;20.964;2023-03-01T07:04:19;44.35;;;23.50;;
58015;SDS011;43809;52.110;20.964;2023-03-01T07:06:19;42.47;;;22.63;;
58015;SDS011;43809;52.110;20.964;2023-03-01T07:08:19;42.03;;;22.17;;
58015;SDS011;43809;52.110;20.964;2023-03-01T07:10:20;44.88;;;22.27;;
58015;SDS011;43809;52.110;20.964;2023-03-01T07:12:20;46.38;;;23.50;;
58015;SDS011;43809;52.110;20.964;2023-03-01T07:14:20;36.47;;;19.60;;
58015;SDS011;43809;52.110;20.964;2023-03-01T07:16:21;37.78;;;20.20;;
58015;SDS011;43809;52.110;20.964;2023-03-01T07:18:21;38.85;;;20.60;;
58015;SDS011;43809;52.110;20.964;2023-03-01T07:20:21;41.75;;;21.75;;
58015;SDS011;43809;52.110;20.964;2023-03-01T07:22:25;43.85;;;23.13;;
58015;SDS011;43809;52.110;20.964;2023-03-01T07:24:25;45.20;;;22.13;;
58015;SDS011;43809;52.110;20.964;2023-03-01T07:26:27;38.35;;;20.73;;
58015;SDS011;43809;52.110;20.964;2023-03-01T07:28:27;38.67;;;20.95;;
58015;SDS011;43809;52.110;20.964;2023-03-01T07:30:27;42.58;;;21.50;;
58015;SDS011;43809;52.110;20.964;2023-03-01T07:32:28;42.92;;;21.77;;
58015;SDS011;43809;52.110;20.964;2023-03-01T07:34:28;46.00;;;21.77;;
58015;SDS011;43809;52.110;20.964;2023-03-01T07:36:28;42.80;;;20.92;;
58015;SDS011;43809;52.110;20.964;2023-03-01T07:38:29;39.87;;;21.27;;
58015;SDS011;43809;52.110;20.964;2023-03-01T07:40:29;42.47;;;21.92;;
58015;SDS011;43809;52.110;20.964;2023-03-01T07:42:29;39.53;;;19.90;;
58015;SDS011;43809;52.110;20.964;2023-03-01T07:44:29;39.30;;;20.00;;
58015;SDS011;43809;52.110;20.964;2023-03-01T07:46:29;42.63;;;21.75;;
58015;SDS011;43809;52.110;20.964;2023-03-01T07:48:30;40.08;;;21.58;;
58015;SDS011;43809;52.110;20.964;2023-03-01T07:50:30;43.33;;;21.67;;
58015;SDS011;43809;52.110;20.964;2023-03-01T07:52:31;40.65;;;20.95;;
58015;SDS011;43809;52.110;20.964;2023-03-01T07:54:31;37.53;;;20.77;;
58015;SDS011;43809;52.110;20.964;2023-03-01T07:56:31;41.28;;;20.55;;
58015;SDS011;43809;52.110;20.964;2023-03-01T07:58:33;41.20;;;20.80;;
58015;SDS011;43809;52.110;20.964;2023-03-01T08:00:34;39.30;;;20.65;;
58015;SDS011;43809;52.110;20.964;2023-03-01T08:02:34;36.20;;;19.10;;
58015;SDS011;43809;52.110;20.964;2023-03-01T08:04:34;36.57;;;19.80;;
58015;SDS011;43809;52.110;20.964;2023-03-01T08:06:35;35.83;;;18.55;;
58015;SDS011;43809;52.110;20.964;2023-03-01T08:08:35;39.58;;;19.95;;
58015;SDS011;43809;52.110;20.964;2023-03-01T08:10:36;36.17;;;18.60;;
58015;SDS011;43809;52.110;20.964;2023-03-01T08:12:36;34.20;;;17.45;;
58015;SDS011;43809;52.110;20.964;2023-03-01T08:14:36;33.92;;;19.02;;
58015;SDS011;43809;52.110;20.964;2023-03-01T08:16:36;36.27;;;17.73;;
58015;SDS011;43809;52.110;20.964;2023-03-01T08:18:39;33.70;;;18.13;;
58015;SDS011;43809;52.110;20.964;2023-03-01T08:20:41;31.70;;;17.60;;
58015;SDS011;43809;52.110;20.964;2023-03-01T08:22:41;32.13;;;16.90;;
58015;SDS011;43809;52.110;20.964;2023-03-01T08:24:41;35.65;;;18.42;;
58015;SDS011;43809;52.110;20.964;2023-03-01T08:26:42;30.87;;;17.23;;
58015;SDS011;43809;52.110;20.964;2023-03-01T08:28:42;33.53;;;17.45;;
58015;SDS011;43809;52.110;20.964;2023-03-01T08:30:42;34.17;;;17.63;;
58015;SDS011;43809;52.110;20.964;2023-03-01T08:32:42;30.95;;;17.33;;
58015;SDS011;43809;52.110;20.964;2023-03-01T08:34:45;32.88;;;17.88;;
58015;SDS011;43809;52.110;20.964;2023-03-01T08:36:46;34.75;;;17.60;;
58015;SDS011;43809;52.110;20.964;2023-03-01T08:38:46;33.08;;;16.98;;
58015;SDS011;43809;52.110;20.964;2023-03-01T08:40:46;30.93;;;17.23;;
58015;SDS011;43809;52.110;20.964;2023-03-01T08:42:46;33.97;;;17.95;;
58015;SDS011;43809;52.110;20.964;2023-03-01T08:44:47;36.00;;;17.87;;
58015;SDS011;43809;52.110;20.964;2023-03-01T08:46:47;33.45;;;16.92;;
58015;SDS011;43809;52.110;20.964;2023-03-01T08:48:49;30.42;;;16.13;;
58015;SDS011;43809;52.110;20.964;2023-03-01T08:50:50;29.75;;;16.02;;
58015;SDS011;43809;52.110;20.964;2023-03-01T08:52:50;29.58;;;16.10;;
58015;SDS011;43809;52.110;20.964;2023-03-01T08:54:50;28.75;;;15.80;;
58015;SDS011;43809;52.110;20.964;2023-03-01T08:56:51;25.00;;;15.20;;
58015;SDS011;43809;52.110;20.964;2023-03-01T08:58:51;26.08;;;14.80;;
58015;SDS011;43809;52.110;20.964;2023-03-01T09:00:51;30.45;;;16.48;;
58015;SDS011;43809;52.110;20.964;2023-03-01T09:02:51;27.00;;;14.27;;
58015;SDS011;43809;52.110;20.964;2023-03-01T09:04:52;31.10;;;16.27;;
58015;SDS011;43809;52.110;20.964;2023-03-01T09:06:52;28.63;;;15.43;;
58015;SDS011;43809;52.110;20.964;2023-03-01T09:08:52;29.07;;;15.63;;
58015;SDS011;43809;52.110;20.964;2023-03-01T09:10:52;32.20;;;15.93;;
58015;SDS011;43809;52.110;20.964;2023-03-01T09:12:52;29.40;;;16.17;;
58015;SDS011;43809;52.110;20.964;2023-03-01T09:14:52;30.67;;;15.55;;
58015;SDS011;43809;52.110;20.964;2023-03-01T09:16:53;27.80;;;15.55;;
58015;SDS011;43809;52.110;20.964;2023-03-01T09:18:55;25.17;;;14.43;;
58015;SDS011;43809;52.110;20.964;2023-03-01T09:21:05;26.67;;;15.38;;
58015;SDS011;43809;52.110;20.964;2023-03-01T09:23:08;27.13;;;15.88;;
58015;SDS011;43809;52.110;20.964;2023-03-01T09:25:09;33.05;;;16.27;;
58015;SDS011;43809;52.110;20.964;2023-03-01T09:27:09;28.77;;;16.55;;
58015;SDS011;43809;52.110;20.964;2023-03-01T09:29:10;30.77;;;17.08;;
58015;SDS011;43809;52.110;20.964;2023-03-01T09:31:10;28.60;;;17.13;;
58015;SDS011;43809;52.110;20.964;2023-03-01T09:33:12;30.52;;;17.95;;
58015;SDS011;43809;52.110;20.964;2023-03-01T09:35:14;32.50;;;16.90;;
58015;SDS011;43809;52.110;20.964;2023-03-01T09:37:14;30.38;;;17.27;;
58015;SDS011;43809;52.110;20.964;2023-03-01T09:39:15;31.77;;;17.08;;
58015;SDS011;43809;52.110;20.964;2023-03-01T09:45:26;29.02;;;16.55;;
58015;SDS011;43809;52.110;20.964;2023-03-01T09:47:28;32.78;;;17.10;;
58015;SDS011;43809;52.110;20.964;2023-03-01T09:49:30;33.60;;;17.45;;
58015;SDS011;43809;52.110;20.964;2023-03-01T09:51:35;29.42;;;16.75;;
58015;SDS011;43809;52.110;20.964;2023-03-01T09:53:35;28.75;;;16.42;;
58015;SDS011;43809;52.110;20.964;2023-03-01T09:55:55;31.80;;;17.13;;
58015;SDS011;43809;52.110;20.964;2023-03-01T09:58:00;30.45;;;16.95;;
58015;SDS011;43809;52.110;20.964;2023-03-01T10:00:24;32.97;;;18.35;;
58015;SDS011;43809;52.110;20.964;2023-03-01T10:02:31;30.58;;;17.40;;
58015;SDS011;43809;52.110;20.964;2023-03-01T10:04:42;31.15;;;16.88;;
58015;SDS011;43809;52.110;20.964;2023-03-01T10:06:44;30.98;;;17.48;;
58015;SDS011;43809;52.110;20.964;2023-03-01T10:08:54;31.02;;;16.88;;
58015;SDS011;43809;52.110;20.964;2023-03-01T10:10:56;28.50;;;15.77;;
58015;SDS011;43809;52.110;20.964;2023-03-01T10:12:57;32.83;;;16.75;;
58015;SDS011;43809;52.110;20.964;2023-03-01T10:14:59;29.02;;;15.80;;
58015;SDS011;43809;52.110;20.964;2023-03-01T10:17:05;29.10;;;16.55;;
58015;SDS011;43809;52.110;20.964;2023-03-01T10:19:11;27.08;;;16.00;;
58015;SDS011;43809;52.110;20.964;2023-03-01T10:21:13;26.30;;;14.63;;
58015;SDS011;43809;52.110;20.964;2023-03-01T10:23:16;27.73;;;16.52;;
58015;SDS011;43809;52.110;20.964;2023-03-01T10:25:17;28.50;;;16.90;;
58015;SDS011;43809;52.110;20.964;2023-03-01T10:27:24;26.90;;;16.02;;
58015;SDS011;43809;52.110;20.964;2023-03-01T10:29:34;29.30;;;16.90;;
58015;SDS011;43809;52.110;20.964;2023-03-01T10:33:38;27.73;;;16.15;;
58015;SDS011;43809;52.110;20.964;2023-03-01T10:35:39;27.58;;;16.02;;
58015;SDS011;43809;52.110;20.964;2023-03-01T10:37:46;26.75;;;15.95;;
58015;SDS011;43809;52.110;20.964;2023-03-01T10:40:01;29.00;;;17.08;;
58015;SDS011;43809;52.110;20.964;2023-03-01T10:42:11;27.08;;;14.95;;
58015;SDS011;43809;52.110;20.964;2023-03-01T10:44:34;25.38;;;14.35;;
58015;SDS011;43809;52.110;20.964;2023-03-01T10:46:35;26.23;;;14.75;;
58015;SDS011;43809;52.110;20.964;2023-03-01T10:48:36;23.77;;;13.82;;
58015;SDS011;43809;52.110;20.964;2023-03-01T10:50:36;25.23;;;15.10;;
58015;SDS011;43809;52.110;20.964;2023-03-01T10:52:37;24.65;;;14.90;;
58015;SDS011;43809;52.110;20.964;2023-03-01T10:56:48;27.55;;;14.73;;
58015;SDS011;43809;52.110;20.964;2023-03-01T10:59:09;23.88;;;14.07;;
58015;SDS011;43809;52.110;20.964;2023-03-01T11:03:19;22.50;;;13.13;;
58015;SDS011;43809;52.110;20.964;2023-03-01T11:05:23;22.40;;;13.20;;
58015;SDS011;43809;52.110;20.964;2023-03-01T11:07:23;22.33;;;13.43;;
58015;SDS011;43809;52.110;20.964;2023-03-01T11:09:24;22.77;;;13.80;;
58015;SDS011;43809;52.110;20.964;2023-03-01T11:11:35;23.88;;;13.80;;
58015;SDS011;43809;52.110;20.964;2023-03-01T11:13:35;23.95;;;14.43;;
58015;SDS011;43809;52.110;20.964;2023-03-01T11:15:35;23.63;;;13.90;;
58015;SDS011;43809;52.110;20.964;2023-03-01T11:17:35;22.27;;;13.40;;
58015;SDS011;43809;52.110;20.964;2023-03-01T11:19:38;21.25;;;14.65;;
58015;SDS011;43809;52.110;20.964;2023-03-01T11:21:39;20.30;;;13.35;;
58015;SDS011;43809;52.110;20.964;2023-03-01T11:23:41;20.92;;;13.60;;
58015;SDS011;43809;52.110;20.964;2023-03-01T11:25:43;24.33;;;12.98;;
58015;SDS011;43809;52.110;20.964;2023-03-01T11:27:45;22.80;;;12.60;;
58015;SDS011;43809;52.110;20.964;2023-03-01T11:29:48;24.45;;;13.38;;
58015;SDS011;43809;52.110;20.964;2023-03-01T11:31:54;21.08;;;12.60;;
58015;SDS011;43809;52.110;20.964;2023-03-01T11:36:01;22.52;;;13.38;;
58015;SDS011;43809;52.110;20.964;2023-03-01T11:40:22;22.15;;;13.63;;
58015;SDS011;43809;52.110;20.964;2023-03-01T11:44:35;20.20;;;12.50;;
58015;SDS011;43809;52.110;20.964;2023-03-01T11:51:09;19.17;;;12.35;;
58015;SDS011;43809;52.110;20.964;2023-03-01T11:53:22;17.00;;;10.60;;
58015;SDS011;43809;52.110;20.964;2023-03-01T11:57:46;18.60;;;11.50;;
58015;SDS011;43809;52.110;20.964;2023-03-01T11:59:59;20.83;;;11.20;;
58015;SDS011;43809;52.110;20.964;2023-03-01T12:10:18;20.93;;;12.20;;
58015;SDS011;43809;52.110;20.964;2023-03-01T12:12:27;18.73;;;11.75;;
58015;SDS011;43809;52.110;20.964;2023-03-01T12:19:05;17.17;;;11.10;;
58015;SDS011;43809;52.110;20.964;2023-03-01T12:25:25;19.30;;;12.18;;
58015;SDS011;43809;52.110;20.964;2023-03-01T12:30:10;22.45;;;12.05;;
58015;SDS011;43809;52.110;20.964;2023-03-01T12:36:49;19.00;;;12.15;;
58015;SDS011;43809;52.110;20.964;2023-03-01T12:38:59;17.35;;;11.80;;
58015;SDS011;43809;52.110;20.964;2023-03-01T12:52:00;21.73;;;13.15;;
58015;SDS011;43809;52.110;20.964;2023-03-01T12:54:05;21.38;;;12.73;;
58015;SDS011;43809;52.110;20.964;2023-03-01T12:56:20;19.33;;;11.82;;
58015;SDS011;43809;52.110;20.964;2023-03-01T13:07:07;20.52;;;11.52;;